^^

Meteo Aereoporti Centro-Italia

 

 
LIRZ - Perugia S.Egidio (208 m.)
Dati ricevuti: 19/11/2017 22:50
Dati non aggiornati
Qualche nuvola
Qualche nuvola
 Vento da direzione variabile
Vento: direzione variabile 4 km/h
TEMPERATURA: 5°C
P.to di Rugiada: 4°C
Umidità: 93%
Pressione: 1016 hPa
Nuvole: Qualche nuvola
Visibilità: 10 km
Dettagli Nuvole: Qualche nuvola 1219 m
2017/11/19 21:50 LIRZ 192150Z VRB02KT 9999 FEW040 05/04 Q1016
 
LIPY - Ancona Falconara (12 m.)
Dati ricevuti: 20/11/2017 05:50
Qualche nuvola
Qualche nuvola
 Vento da S
Vento: S 6 km/h
TEMPERATURA: 4°C
P.to di Rugiada: 4°C
Umidità: 100%
Pressione: 1020 hPa
Nuvole: Qualche nuvola
Visibilità: 7 km
Dettagli Nuvole: Qualche nuvola 1067 m
2017/11/20 04:50 LIPY 200450Z 17003KT 7000 FEW035 04/04 Q1020
 
LIPR - Rimini Miramare (12 m.)
Dati ricevuti: 20/11/2017 06:15
Sereno
Sereno
 Vento da S
Vento: S 4 km/h
TEMPERATURA: 4°C
P.to di Rugiada: 3°C
Umidità: 93%
Pressione: 1019 hPa
Condizioni generali: Sereno
Visibilità: oltre 10 km
2017/11/20 05:15 LIPR 200515Z 19002KT CAVOK 04/03 Q1019
 
LIRF - Roma Fiumicino (2 m.)
Dati ricevuti: 20/11/2017 06:20
Sereno
Sereno
 Vento da E
Vento: E 6 km/h
TEMPERATURA: 7°C
P.to di Rugiada: 5°C
Umidità: 87%
Pressione: 1018 hPa
Condizioni generali: Sereno
Visibilità: oltre 10 km
2017/11/20 05:20 LIRF 200520Z 10003KT CAVOK 07/05 Q1018 NOSIG
 
LIRA - Roma Ciampino (129 m.)
Dati ricevuti: 20/11/2017 06:20
Sereno
Sereno
 Vento da NE
Vento: NE 11 km/h
TEMPERATURA: 6°C
Raffreddamento da Vento: 4°C
P.to di Rugiada: 4°C
Umidità: 87%
Pressione: 1018 hPa
Condizioni generali: Sereno
Visibilità: oltre 10 km
2017/11/20 05:20 LIRA 200520Z 04006KT CAVOK 06/04 Q1018
 
LIRU - Roma Urbe (17 m.)
Dati ricevuti: 19/11/2017 16:50
Dati non aggiornati
Poco nuvoloso
Poco nuvoloso
 Vento da direzione variabile
Vento: direzione variabile 2 km/h
TEMPERATURA: 13°C
P.to di Rugiada: 8°C
Umidità: 72%
Pressione: 1013 hPa
Nuvole: Poco nuvoloso
Visibilità: 10 km
Dettagli Nuvole: Poco nuvoloso 914 m
2017/11/19 15:50 LIRU 191550Z VRB01KT 9999 SCT030 13/08 Q1013
 
LIVF - Frontone (570 m.)
Dati ricevuti: 20/11/2017 05:55
Sereno
Sereno
 Vento da S
Vento: S 13 km/h
TEMPERATURA: 4°C
Raffreddamento da Vento: 1°C
P.to di Rugiada: 2°C
Umidità: 87%
Pressione: 1017 hPa
Condizioni generali: Sereno
Visibilità: oltre 10 km
2017/11/20 04:55 LIVF 200455Z 18007KT CAVOK 04/02 Q1017 RMK SKC MON LIB VAL NW FOSCHIA VIS MIN 9999
 
LIRQ - Firenze Peretola (40 m.)
Dati ricevuti: 20/11/2017 06:20
Poco nuvoloso
Poco nuvoloso
 Vento da direzione variabile
Vento: direzione variabile 2 km/h
TEMPERATURA: 0°C
P.to di Rugiada: 0°C
Umidità: 100%
Pressione: 1020 hPa
Nuvole: Poco nuvoloso
Visibilità: 8 km
2017/11/20 05:20 LIRQ 200520Z VRB01KT 8000 R05/1400VP2000/ NSC 00/M00 Q1020
 
LIBP - Pescara (10 m.)
Dati ricevuti: 20/11/2017 05:50
Sereno
Sereno
 Vento da SSW
Vento: SSW 7 km/h
TEMPERATURA: 6°C
Raffreddamento da Vento: 4°C
P.to di Rugiada: 3°C
Umidità: 81%
Pressione: 1020 hPa
Nuvole: Sereno
Visibilità: 10 km
2017/11/20 04:50 LIBP 200450Z AUTO 20004KT 9999 NCD 06/03 Q1020
 
LIRV - Viterbo (300 m.)
Dati ricevuti: 18/11/2017 18:55
Dati non aggiornati
Sereno
Sereno
 Vento da NNE
Vento: NNE 19 km/h
TEMPERATURA: 8°C
Raffreddamento da Vento: 4°C
P.to di Rugiada: 4°C
Umidità: 76%
Pressione: 1015 hPa
Condizioni generali: Sereno
Visibilità: oltre 10 km
2017/11/18 17:55 LIRV 181755Z 03010KT CAVOK 08/04 Q1015
 
LIQN - Rieti (389 m.)
Dati ricevuti: 19/11/2017 16:50
Dati non aggiornati
Sereno
Sereno
 Vento da direzione variabile
Vento: direzione variabile 6 km/h
TEMPERATURA: 10°C
P.to di Rugiada: 5°C
Umidità: 71%
Pressione: 1011 hPa
Condizioni generali: Sereno
Visibilità: oltre 10 km
2017/11/19 15:50 LIQN 191550Z VRB03KT CAVOK 10/05 Q1011
 
LIRG - Guidonia -RM- (88 m.)
Dati ricevuti: 17/11/2017 18:55
Dati non aggiornati
Sereno
Sereno
 Vento da NE
Vento: NE 7 km/h
TEMPERATURA: 11°C
P.to di Rugiada: 9°C
Umidità: 88%
Pressione: 1013 hPa
Condizioni generali: Sereno
Visibilità: oltre 10 km
2017/11/17 17:55 LIRG 171755Z 04004KT CAVOK 11/09 Q1013
 
LIRK - Terminillo -RI-(1874 m.)
Dati ricevuti: 02/11/2017 12:55
Dati non aggiornati

 Vento da WNW
Vento: WNW 11 km/h
2017/11/02 11:55 LIRK 021155Z AUTO 29006KT //// ///// Q////
 
LIPK - Forlì (27 m.)
Dati ricevuti: 17/11/2017 17:50
Dati non aggiornati
Poco nuvoloso
Poco nuvoloso
 Vento da direzione variabile
Vento: direzione variabile 4 km/h
TEMPERATURA: 11°C
P.to di Rugiada: 5°C
Umidità: 67%
Pressione: 1017 hPa
Nuvole: Poco nuvoloso
Visibilità: 10 km
Dettagli Nuvole: Qualche nuvola 457 m
Poco nuvoloso 1372 m
2017/11/17 16:50 LIPK 171650Z VRB02KT 9999 FEW015 SCT045 11/05 Q1017
 
LIRS - Grosseto (5 m.)
Dati ricevuti: 20/11/2017 05:55
Poco nuvoloso
Poco nuvoloso
 Vento da NE
Vento: NE 9 km/h
TEMPERATURA: 5°C
Raffreddamento da Vento: 3°C
P.to di Rugiada: 3°C
Umidità: 87%
Pressione: 1018 hPa
Nuvole: Poco nuvoloso
Visibilità: 9 km
2017/11/20 04:55 LIRS 200455Z 05005KT 9000 NSC 05/03 Q1018
 
LIRP - Pisa S.Giusto (2 m.)
Dati ricevuti: 20/11/2017 06:15
Foschia, Poco nuvoloso
Foschia, Poco nuvoloso
 Vento da E
Vento: E 11 km/h
TEMPERATURA: 4°C
Raffreddamento da Vento: 1°C
P.to di Rugiada: 4°C
Umidità: 100%
Pressione: 1019 hPa
Condizioni generali: Foschia
Nuvole: Poco nuvoloso
Visibilità: 5 km
2017/11/20 05:15 LIRP 200515Z 09006KT 5000 BR NSC 04/04 Q1019 TEMPO 0600 FG